createdAt,value
2017-11-08T00:00:32.202Z,83.43
2017-11-08T00:01:42.265Z,83.05
2017-11-08T00:02:52.377Z,83.05
2017-11-08T00:04:03.228Z,83.05
2017-11-08T00:05:13.741Z,83.05
2017-11-08T00:06:24.152Z,83.43
2017-11-08T00:07:34.227Z,83.24
2017-11-08T00:08:44.696Z,83.43
2017-11-08T00:09:55.089Z,83.24
2017-11-08T00:11:05.168Z,83.43
2017-11-08T00:12:15.245Z,82.67
2017-11-08T00:13:25.664Z,82.86
2017-11-08T00:14:36.115Z,82.71
2017-11-08T00:15:46.220Z,82.67
2017-11-08T00:16:57.229Z,83.05
2017-11-08T00:18:07.318Z,83
2017-11-08T00:19:17.727Z,83.09
2017-11-08T00:20:27.530Z,82.9
2017-11-08T00:21:37.590Z,82.9
2017-11-08T00:22:48.003Z,82.81
2017-11-08T00:23:58.418Z,83
2017-11-08T00:25:08.829Z,83
2017-11-08T00:26:19.281Z,82.76
2017-11-08T00:27:29.352Z,82.86
2017-11-08T00:28:38.751Z,82.67
2017-11-08T00:29:48.817Z,82.86
2017-11-08T00:30:59.223Z,82.76
2017-11-08T00:32:09.674Z,83.53
2017-11-08T00:33:19.757Z,82.86
2017-11-08T00:34:30.150Z,82.86
2017-11-08T00:35:40.537Z,82.67
2017-11-08T00:36:50.932Z,82.76
2017-11-08T00:38:01.331Z,83.14
2017-11-08T00:39:11.735Z,82.67
2017-11-08T00:40:21.817Z,82.9
2017-11-08T00:41:31.925Z,82.86
2017-11-08T00:42:41.663Z,82.86
2017-11-08T00:43:51.774Z,82.86
2017-11-08T00:45:01.846Z,82.67
2017-11-08T00:46:11.587Z,83.43
2017-11-08T00:47:21.671Z,82.95
2017-11-08T00:48:31.761Z,83.53
2017-11-08T00:49:42.156Z,83.43
2017-11-08T00:50:52.234Z,83.43
2017-11-08T00:52:02.294Z,83.34
2017-11-08T00:53:12.718Z,83.43
2017-11-08T00:54:22.789Z,83.53
2017-11-08T00:55:32.906Z,83.43
2017-11-08T00:56:43.316Z,83.43
2017-11-08T00:57:53.715Z,83.43
2017-11-08T00:59:03.785Z,83.24
2017-11-08T01:00:14.178Z,83.05
2017-11-08T01:01:24.604Z,83.34
2017-11-08T01:02:34.671Z,83.05
2017-11-08T01:03:45.082Z,83.43
2017-11-08T01:04:55.494Z,83.43
2017-11-08T01:06:05.594Z,83.24
2017-11-08T01:07:15.673Z,83.34
2017-11-08T01:08:26.075Z,83.43
2017-11-08T01:09:36.182Z,83.43
2017-11-08T01:10:46.583Z,83.43
2017-11-08T01:11:56.649Z,83.24
2017-11-08T01:13:07.113Z,83.43
2017-11-08T01:14:17.530Z,83.24
2017-11-08T01:15:27.960Z,83.43
2017-11-08T01:16:38.369Z,83.24
2017-11-08T01:17:48.769Z,83.43
2017-11-08T01:18:58.544Z,83.34
2017-11-08T01:20:08.955Z,83.34
2017-11-08T01:21:19.349Z,83.53
2017-11-08T01:22:29.763Z,83.43
2017-11-08T01:23:39.826Z,83.05
2017-11-08T01:24:50.247Z,83.01
2017-11-08T01:26:00.636Z,83.2
2017-11-08T01:27:10.711Z,83.14
2017-11-08T01:28:20.794Z,83.29
2017-11-08T01:29:31.230Z,83.01
2017-11-08T01:30:41.654Z,83.05
2017-11-08T01:31:51.391Z,83.01
2017-11-08T01:33:01.792Z,83.24
2017-11-08T01:34:12.209Z,83.43
2017-11-08T01:35:22.660Z,83.53
2017-11-08T01:36:32.386Z,83.43
2017-11-08T01:37:42.459Z,83.43
2017-11-08T01:38:52.862Z,83.43
2017-11-08T01:40:03.266Z,82.67
2017-11-08T01:41:13.695Z,82.67
2017-11-08T01:42:24.085Z,82.76
2017-11-08T01:43:34.177Z,82.67
2017-11-08T01:44:44.582Z,82.76
2017-11-08T01:45:54.956Z,82.67
2017-11-08T01:47:05.030Z,82.86
2017-11-08T01:48:15.490Z,82.67
2017-11-08T01:49:25.893Z,82.67
2017-11-08T01:50:36.283Z,82.86
2017-11-08T01:51:46.691Z,82.76
2017-11-08T01:52:57.097Z,82.67
2017-11-08T01:54:07.482Z,82.86
2017-11-08T01:55:17.866Z,82.76
2017-11-08T01:56:27.946Z,82.67
2017-11-08T01:57:38.351Z,82.67
2017-11-08T01:58:48.742Z,82.67
2017-11-08T01:59:59.185Z,83.43
2017-11-08T02:01:09.579Z,82.67
2017-11-08T02:02:19.645Z,82.76
2017-11-08T02:03:29.707Z,82.67
2017-11-08T02:04:40.100Z,82.67
2017-11-08T02:05:50.177Z,82.67
2017-11-08T02:07:00.232Z,82.67
2017-11-08T02:08:10.614Z,83.05
2017-11-08T02:09:21.007Z,82.86
2017-11-08T02:10:31.086Z,83.05
2017-11-08T02:11:41.549Z,82.67
2017-11-08T02:12:51.940Z,82.67
2017-11-08T02:14:02.350Z,82.67
2017-11-08T02:15:12.750Z,82.76
2017-11-08T02:16:23.146Z,83.53
2017-11-08T02:17:33.251Z,83.53
2017-11-08T02:18:43.656Z,82.95
2017-11-08T02:19:54.055Z,82.86
2017-11-08T02:21:04.455Z,83.53
2017-11-08T02:22:14.867Z,83.24
2017-11-08T02:23:25.265Z,82.76
2017-11-08T02:24:35.669Z,83.05
2017-11-08T02:25:45.740Z,83.43
2017-11-08T02:26:56.145Z,83.53
2017-11-08T02:28:06.535Z,83.34
2017-11-08T02:29:16.620Z,83.53
2017-11-08T02:30:26.704Z,83.43
2017-11-08T02:31:36.115Z,83.53
2017-11-08T02:32:46.178Z,83.24
2017-11-08T02:33:56.647Z,83.43
2017-11-08T02:35:07.101Z,82.95
2017-11-08T02:36:17.506Z,83.05
2017-11-08T02:37:27.574Z,83.2
2017-11-08T02:38:37.989Z,83.29
2017-11-08T02:39:48.292Z,83.29
2017-11-08T02:40:58.698Z,83.2
2017-11-08T02:42:09.100Z,83.11
2017-11-08T02:43:19.518Z,83.2
2017-11-08T02:44:29.920Z,83.29
2017-11-08T02:45:39.331Z,83.29
2017-11-08T02:46:49.403Z,83.39
2017-11-08T02:47:59.804Z,83.29
2017-11-08T02:49:10.202Z,83.2
2017-11-08T02:50:20.585Z,83.2
2017-11-08T02:51:30.992Z,83.2
2017-11-08T02:52:41.392Z,83.11
2017-11-08T02:53:51.461Z,83.29
2017-11-08T02:55:01.542Z,83.29
2017-11-08T02:56:11.934Z,83.43
2017-11-08T02:57:22.369Z,83.29
2017-11-08T02:58:32.764Z,83.05
2017-11-08T02:59:42.827Z,83.05
2017-11-08T03:00:52.909Z,83.05
2017-11-08T03:32:48.643Z,79.22
2017-11-08T03:33:59.041Z,79.89
2017-11-08T03:35:09.427Z,80.94
2017-11-08T03:36:19.833Z,81.98
2017-11-08T03:37:30.238Z,82.46
2017-11-08T03:38:40.302Z,82.46
2017-11-08T03:39:50.707Z,83.41
2017-11-08T03:41:01.096Z,83.13
2017-11-08T03:42:11.186Z,84.22
2017-11-08T03:43:21.577Z,84.03
2017-11-08T03:44:32.033Z,84.22
2017-11-08T03:45:42.451Z,83.84
2017-11-08T03:46:52.897Z,83.88
2017-11-08T03:48:03.317Z,84.16
2017-11-08T03:49:13.703Z,84.26
2017-11-08T03:50:24.158Z,84.07
2017-11-08T03:51:34.234Z,83.88
2017-11-08T03:52:44.622Z,83.64
2017-11-08T03:53:55.026Z,83.64
2017-11-08T03:55:05.441Z,83.64
2017-11-08T03:56:15.877Z,83.44
2017-11-08T03:57:25.949Z,83.25
2017-11-08T03:58:36.023Z,83.64
2017-11-08T03:59:46.090Z,83.54
2017-11-08T04:00:56.160Z,83.96
2017-11-08T04:02:06.603Z,83.29
2017-11-08T04:03:17.018Z,83.87
2017-11-08T04:04:27.424Z,83.29
2017-11-08T04:05:37.833Z,83.39
2017-11-08T04:06:47.906Z,83.2
2017-11-08T04:07:58.360Z,83.48
2017-11-08T04:09:08.767Z,83.39
2017-11-08T04:10:19.179Z,83.67
2017-11-08T04:11:29.249Z,83.67
2017-11-08T04:12:39.661Z,83.67
2017-11-08T04:13:50.055Z,83.67
2017-11-08T04:15:00.457Z,83.48
2017-11-08T04:16:10.862Z,83.58
2017-11-08T04:17:20.933Z,83.67
2017-11-08T04:18:31.010Z,83.39
2017-11-08T04:19:41.501Z,83.77
2017-11-08T04:20:51.589Z,83.67
2017-11-08T04:22:01.686Z,83.58
2017-11-08T04:23:11.752Z,83.77
2017-11-08T04:24:21.823Z,83.58
2017-11-08T04:25:32.280Z,83.67
2017-11-08T04:26:42.024Z,83.39
2017-11-08T04:27:52.418Z,83.58
2017-11-08T04:29:02.813Z,83.58
2017-11-08T04:30:13.209Z,83.67
2017-11-08T04:31:23.642Z,83.39
2017-11-08T04:32:34.041Z,83.67
2017-11-08T04:33:44.104Z,83.67
2017-11-08T04:34:53.523Z,83.67
2017-11-08T04:36:03.590Z,83.58
2017-11-08T04:37:13.984Z,83.58
2017-11-08T04:38:24.392Z,83.58
2017-11-08T04:39:34.773Z,83.58
2017-11-08T04:40:44.844Z,83.81
2017-11-08T04:41:55.245Z,83.67
2017-11-08T04:43:05.481Z,83.39
2017-11-08T04:44:15.924Z,83.72
2017-11-08T04:45:25.996Z,83.72
2017-11-08T04:46:35.742Z,83.58
2017-11-08T04:47:45.806Z,83.58
2017-11-08T04:48:55.956Z,83.48
2017-11-08T04:50:06.348Z,83.72
2017-11-08T04:51:16.420Z,83.58
2017-11-08T04:52:26.831Z,83.39
2017-11-08T04:53:36.896Z,83.67
2017-11-08T04:54:46.970Z,83.77
2017-11-08T04:55:57.359Z,83.58
2017-11-08T04:57:07.767Z,83.48
2017-11-08T04:58:18.169Z,83.67
2017-11-08T04:59:28.577Z,83.58
2017-11-08T05:00:39.023Z,83.67
2017-11-08T05:01:49.146Z,83.67
2017-11-08T05:02:59.538Z,83.67
2017-11-08T05:04:09.944Z,83.39
2017-11-08T05:05:20.335Z,83.67
2017-11-08T05:06:30.752Z,83.67
2017-11-08T05:07:40.492Z,83.58
2017-11-08T05:08:50.560Z,83.67
2017-11-08T05:10:00.964Z,83.48
2017-11-08T05:11:11.360Z,83.39
2017-11-08T05:12:21.817Z,83.67
2017-11-08T05:13:32.196Z,83.29
2017-11-08T05:14:42.600Z,83.39
2017-11-08T05:15:52.992Z,83.39
2017-11-08T05:17:03.403Z,83.39
2017-11-08T05:18:13.864Z,83.39
2017-11-08T05:19:24.252Z,83.48
2017-11-08T05:20:34.633Z,83.67
2017-11-08T05:21:45.043Z,83.67
2017-11-08T05:22:55.448Z,83.58
2017-11-08T05:24:05.523Z,83.67
2017-11-08T05:25:15.925Z,83.58
2017-11-08T05:26:26.312Z,83.48
2017-11-08T05:27:36.374Z,83.39
2017-11-08T05:28:46.767Z,83.48
2017-11-08T05:29:57.231Z,83.39
2017-11-08T05:31:06.970Z,83.48
2017-11-08T05:32:16.712Z,83.67
2017-11-08T05:33:27.103Z,83.48
2017-11-08T05:34:37.486Z,83.58
2017-11-08T05:35:47.602Z,83.67
2017-11-08T05:36:57.999Z,83.48
2017-11-08T05:38:08.376Z,83.39
2017-11-08T05:39:17.789Z,83.48
2017-11-08T05:40:28.189Z,83.77
2017-11-08T05:41:38.589Z,83.67
2017-11-08T05:42:48.982Z,83.2
2017-11-08T05:43:59.051Z,83.58
2017-11-08T05:45:09.473Z,83.39
2017-11-08T05:46:19.882Z,83.48
2017-11-08T05:47:30.339Z,83.58
2017-11-08T05:48:40.741Z,83.48
2017-11-08T05:49:51.133Z,83.58
2017-11-08T05:51:01.524Z,83.67
2017-11-08T05:52:11.581Z,83.67
2017-11-08T05:53:21.993Z,83.48
2017-11-08T05:54:32.064Z,83.67
2017-11-08T05:55:42.148Z,83.67
2017-11-08T05:56:52.538Z,83.67
2017-11-08T05:58:02.939Z,83.48
2017-11-08T05:59:13.415Z,83.58
2017-11-08T06:00:23.829Z,83.58
2017-11-08T06:01:33.576Z,83.58
2017-11-08T06:02:43.641Z,83.67
2017-11-08T06:03:54.046Z,83.77
2017-11-08T06:05:04.483Z,83.67
2017-11-08T06:06:14.543Z,83.58
2017-11-08T06:07:24.939Z,83.48
2017-11-08T06:08:35.003Z,83.58
2017-11-08T06:09:45.402Z,83.58
2017-11-08T06:10:55.871Z,83.39
2017-11-08T06:12:06.282Z,83.83
2017-11-08T06:13:16.684Z,84.11
2017-11-08T06:14:27.081Z,84.4
2017-11-08T06:15:37.491Z,84.3
2017-11-08T06:16:47.966Z,84.01
2017-11-08T06:17:58.376Z,84.01
2017-11-08T06:19:08.772Z,84.4
2017-11-08T06:20:19.168Z,84.11
2017-11-08T06:21:29.564Z,84.3
2017-11-08T06:22:39.998Z,84.4
2017-11-08T06:23:50.073Z,84.2
2017-11-08T06:25:00.478Z,83.73
2017-11-08T06:26:10.543Z,83.64
2017-11-08T06:27:20.979Z,83.54
2017-11-08T06:28:31.103Z,83.35
2017-11-08T06:29:41.189Z,83.16
2017-11-08T06:30:51.572Z,83.54
2017-11-08T06:32:01.959Z,83.73
2017-11-08T06:33:12.028Z,83.92
2017-11-08T06:34:22.446Z,83.35
2017-11-08T06:35:32.854Z,83.83
2017-11-08T06:36:43.249Z,83.5
2017-11-08T06:37:53.644Z,83.54
2017-11-08T06:39:04.048Z,83.64
2017-11-08T06:40:14.508Z,83.64
2017-11-08T06:41:24.899Z,83.4
2017-11-08T06:42:35.293Z,83.73
2017-11-08T06:43:45.691Z,83.54
2017-11-08T06:44:56.080Z,83.83
2017-11-08T06:46:06.479Z,83.12
2017-11-08T06:47:16.884Z,83.12
2017-11-08T06:48:27.313Z,83.31
2017-11-08T06:49:38.954Z,83.54
2017-11-08T06:50:49.035Z,83.4
2017-11-08T06:51:59.521Z,83.21
2017-11-08T06:53:09.942Z,83.5
2017-11-08T06:54:20.337Z,83.06
2017-11-08T06:55:30.433Z,83.25
2017-11-08T06:56:40.510Z,83.35
2017-11-08T06:57:50.965Z,83.25
2017-11-08T06:59:00.700Z,83.25
2017-11-08T07:00:10.770Z,83.16
2017-11-08T07:01:20.833Z,83.35
2017-11-08T07:02:31.231Z,82.59
2017-11-08T07:03:41.633Z,82.49
2017-11-08T07:04:51.702Z,82.78
2017-11-08T07:06:02.117Z,82.78
2017-11-08T07:07:12.526Z,82.87
2017-11-08T07:08:22.941Z,82.87
2017-11-08T07:09:33.360Z,82.4
2017-11-08T07:10:43.775Z,82.34
2017-11-08T07:11:54.162Z,82.97
2017-11-08T07:13:04.576Z,82.4
2017-11-08T07:14:14.977Z,82.72
2017-11-08T07:15:25.102Z,82.63
2017-11-08T07:16:35.489Z,82.24
2017-11-08T07:17:45.545Z,82.15
2017-11-08T07:18:55.991Z,82.15
2017-11-08T07:20:06.417Z,82.43
2017-11-08T07:21:16.821Z,82.72
2017-11-08T07:22:27.225Z,82.24
2017-11-08T07:23:37.634Z,82.24
2017-11-08T07:24:47.372Z,82.72
2017-11-08T07:25:57.788Z,82.24
2017-11-08T07:27:07.909Z,82.24
2017-11-08T07:28:17.987Z,82.24
2017-11-08T07:29:28.395Z,82.43
2017-11-08T07:30:38.791Z,82.24
2017-11-08T07:31:49.192Z,82.63
2017-11-08T07:32:59.589Z,82.63
2017-11-08T07:34:09.977Z,82.06
2017-11-08T07:35:20.037Z,82.15
2017-11-08T07:36:30.424Z,82.06
2017-11-08T07:37:40.836Z,82.24
2017-11-08T07:38:50.957Z,82.43
2017-11-08T07:40:01.362Z,82.24
2017-11-08T07:41:11.772Z,82.34
2017-11-08T07:42:22.174Z,82.34
2017-11-08T07:43:32.581Z,82.15
2017-11-08T07:44:42.990Z,82.53
2017-11-08T07:45:53.053Z,82.34
2017-11-08T07:47:03.136Z,83.01
2017-11-08T07:48:13.538Z,82.43
2017-11-08T07:49:23.947Z,82.43
2017-11-08T07:50:34.035Z,82.34
2017-11-08T07:51:44.570Z,82.53
2017-11-08T07:52:54.353Z,82.72
2017-11-08T07:54:04.735Z,82.43
2017-11-08T07:55:15.127Z,82.34
2017-11-08T07:56:25.534Z,82.72
2017-11-08T07:57:35.957Z,82.43
2017-11-08T07:58:46.422Z,83.11
2017-11-08T07:59:56.809Z,83.01
2017-11-08T08:01:07.226Z,83.11
2017-11-08T08:02:17.299Z,82.91
2017-11-08T08:03:27.704Z,82.72
2017-11-08T08:04:38.160Z,82.82
2017-11-08T08:05:48.557Z,82.82
2017-11-08T08:06:58.631Z,82.82
2017-11-08T08:08:09.057Z,82.63
2017-11-08T08:09:19.458Z,83.48
2017-11-08T08:10:29.913Z,83.39
2017-11-08T08:11:39.977Z,83.39
2017-11-08T08:12:50.390Z,83.2
2017-11-08T08:14:00.792Z,83.39
2017-11-08T08:15:10.873Z,82.72
2017-11-08T08:16:21.271Z,82.63
2017-11-08T08:17:31.676Z,82.63
2017-11-08T08:18:42.850Z,83.01
2017-11-08T08:19:53.238Z,82.91
2017-11-08T08:21:03.626Z,83.01
2017-11-08T08:22:14.013Z,82.91
2017-11-08T08:23:24.098Z,82.91
2017-11-08T08:24:34.501Z,82.53
2017-11-08T08:25:44.892Z,82.72
2017-11-08T08:26:54.970Z,83.01
2017-11-08T08:28:05.082Z,82.63
2017-11-08T08:29:15.499Z,83.11
2017-11-08T08:30:25.254Z,83.48
2017-11-08T08:31:35.647Z,83.39
2017-11-08T08:32:46.063Z,83.39
2017-11-08T08:33:55.841Z,83.2
2017-11-08T08:35:06.238Z,83.2
2017-11-08T08:36:16.632Z,83.39
2017-11-08T08:37:27.035Z,83.11
2017-11-08T08:38:37.113Z,83.2
2017-11-08T08:39:47.223Z,83.35
2017-11-08T08:40:57.620Z,83.25
2017-11-08T08:42:08.012Z,82.97
2017-11-08T08:43:18.416Z,83.06
2017-11-08T08:44:28.806Z,82.97
2017-11-08T08:45:39.244Z,83.06
2017-11-08T08:46:49.634Z,83.16
2017-11-08T08:48:00.045Z,83.06
2017-11-08T08:49:10.433Z,83.25
2017-11-08T08:50:20.174Z,83.16
2017-11-08T08:51:30.640Z,83.25
2017-11-08T08:52:40.699Z,83.35
2017-11-08T08:53:50.790Z,83.16
2017-11-08T08:55:00.875Z,83.35
2017-11-08T08:56:10.940Z,83.16
2017-11-08T08:57:21.344Z,83.16
2017-11-08T08:58:31.411Z,83.64
2017-11-08T08:59:41.832Z,82.97
2017-11-08T09:00:51.894Z,82.97
2017-11-08T09:02:02.305Z,83.35
2017-11-08T09:03:12.745Z,82.97
2017-11-08T09:04:23.155Z,83.25
2017-11-08T09:05:32.908Z,83.35
2017-11-08T09:06:43.306Z,83.35
2017-11-08T09:07:53.048Z,83.35
2017-11-08T09:09:03.492Z,82.87
2017-11-08T09:10:13.910Z,83.16
2017-11-08T09:11:24.316Z,83.16
2017-11-08T09:12:34.403Z,82.68
2017-11-08T09:13:44.800Z,82.78
2017-11-08T09:14:55.192Z,83.06
2017-11-08T09:16:05.248Z,82.78
2017-11-08T09:17:15.645Z,82.59
2017-11-08T09:18:26.065Z,82.97
2017-11-08T09:19:36.142Z,82.97
2017-11-08T09:20:46.546Z,82.78
2017-11-08T09:21:56.936Z,82.87
2017-11-08T09:23:07.353Z,82.78
2017-11-08T09:24:17.770Z,82.78
2017-11-08T09:25:28.198Z,82.78
2017-11-08T09:26:38.589Z,82.78
2017-11-08T09:27:48.975Z,82.82
2017-11-08T09:28:59.386Z,82.82
2017-11-08T09:30:09.795Z,82.72
2017-11-08T09:31:20.201Z,82.72
2017-11-08T09:32:30.658Z,82.82
2017-11-08T09:33:40.724Z,82.91
2017-11-08T09:34:51.124Z,82.91
2017-11-08T09:36:01.189Z,82.82
2017-11-08T09:37:10.924Z,82.72
2017-11-08T09:38:21.328Z,82.63
2017-11-08T09:39:31.388Z,82.63
2017-11-08T09:40:41.802Z,82.72
2017-11-08T09:41:51.866Z,83.11
2017-11-08T09:43:01.608Z,82.82
2017-11-08T09:44:11.721Z,83.01
2017-11-08T09:45:22.109Z,83.01
2017-11-08T09:46:32.508Z,83.2
2017-11-08T09:47:42.901Z,83.11
2017-11-08T09:48:53.351Z,82.53
2017-11-08T09:50:03.474Z,82.72
2017-11-08T09:51:13.880Z,82.72
2017-11-08T09:52:24.272Z,82.72
2017-11-08T09:53:34.681Z,82.82
2017-11-08T09:54:45.106Z,83.11
2017-11-08T09:55:55.597Z,83.11
2017-11-08T09:57:05.994Z,83.01
2017-11-08T09:58:16.081Z,83.01
2017-11-08T09:59:26.485Z,82.63
2017-11-08T10:00:36.879Z,83.01
2017-11-08T10:01:47.338Z,82.72
2017-11-08T10:02:57.115Z,82.72
2017-11-08T10:04:07.561Z,82.82
2017-11-08T10:05:18.119Z,82.82
2017-11-08T10:06:28.228Z,83.01
2017-11-08T10:07:38.686Z,82.63
2017-11-08T10:08:49.089Z,82.63
2017-11-08T10:09:59.331Z,82.72
2017-11-08T10:11:09.605Z,83.48
2017-11-08T10:12:19.659Z,83.01
2017-11-08T10:13:30.175Z,83.67
2017-11-08T10:14:40.674Z,83.67
2017-11-08T10:15:50.887Z,83.48
2017-11-08T10:17:01.047Z,83.58
2017-11-08T10:18:11.172Z,83.2
2017-11-08T10:19:21.595Z,83.87
2017-11-08T10:20:32.105Z,83.77
2017-11-08T10:21:42.176Z,83.67
2017-11-08T10:22:52.580Z,83.48
2017-11-08T10:24:02.990Z,83.67
2017-11-08T10:25:13.432Z,83.58
2017-11-08T10:26:23.870Z,83.67
2017-11-08T10:27:33.952Z,83.67
2017-11-08T10:28:44.364Z,83.2
2017-11-08T10:29:54.440Z,83.54
2017-11-08T10:31:04.965Z,83.58
2017-11-08T10:32:15.357Z,83.58
2017-11-08T10:33:25.196Z,83.54
2017-11-08T10:34:35.268Z,83.54
2017-11-08T10:35:45.667Z,83.64
2017-11-08T10:36:56.125Z,83.54
2017-11-08T10:38:06.539Z,83.35
2017-11-08T10:39:17.545Z,83.35
2017-11-08T10:40:27.625Z,83.01
2017-11-08T10:41:37.735Z,83.2
2017-11-08T10:42:47.448Z,83.2
2017-11-08T10:43:57.872Z,83.29
2017-11-08T10:45:07.951Z,83.01
2017-11-08T10:46:18.074Z,83.77
2017-11-08T10:47:27.822Z,83.58
2017-11-08T10:48:38.310Z,83.64
2017-11-08T10:49:48.745Z,83.44
2017-11-08T10:50:58.830Z,83.64
2017-11-08T10:52:09.232Z,83.25
2017-11-08T10:53:19.663Z,83.64
2017-11-08T10:54:30.133Z,83.64
2017-11-08T10:55:40.568Z,83.64
2017-11-08T10:56:49.988Z,83.44
2017-11-08T10:57:59.757Z,83.25
2017-11-08T10:59:10.167Z,83.25
2017-11-08T11:00:20.310Z,83.29
2017-11-08T11:01:30.710Z,83.35
2017-11-08T11:02:40.825Z,83.2
2017-11-08T11:03:51.258Z,83.39
2017-11-08T11:05:01.007Z,83.2
2017-11-08T11:06:11.190Z,82.63
2017-11-08T11:07:21.620Z,82.82
2017-11-08T11:08:31.675Z,82.91
2017-11-08T11:09:41.082Z,82.72
2017-11-08T11:10:51.158Z,82.15
2017-11-08T11:12:00.625Z,82.15
2017-11-08T11:13:10.702Z,82.43
2017-11-08T11:14:20.439Z,82.24
2017-11-08T11:15:30.540Z,82.63
2017-11-08T11:16:40.309Z,83.11
2017-11-08T11:17:50.436Z,83.01
2017-11-08T11:19:00.883Z,82.72
2017-11-08T11:20:11.325Z,82.72
2017-11-08T11:21:21.732Z,82.82
2017-11-08T11:22:31.478Z,82.82
2017-11-08T11:23:41.269Z,83.2
2017-11-08T11:24:51.400Z,83.48
2017-11-08T11:26:01.996Z,83.39
2017-11-08T11:27:13.418Z,83.39
2017-11-08T11:28:23.829Z,83.2
2017-11-08T11:29:33.950Z,83.2
2017-11-08T11:30:44.037Z,83.29
2017-11-08T11:31:53.476Z,83.39
2017-11-08T11:33:03.908Z,83.35
2017-11-08T11:34:14.337Z,83.16
2017-11-08T11:35:24.497Z,83.35
2017-11-08T11:36:34.564Z,83.16
2017-11-08T11:37:45.042Z,83.35
2017-11-08T11:38:55.170Z,83.35
2017-11-08T11:40:05.250Z,83.25
2017-11-08T11:41:15.719Z,83.35
2017-11-08T11:42:25.811Z,83.16
2017-11-08T11:43:35.558Z,83.44
2017-11-08T11:44:45.981Z,82.59
2017-11-08T11:45:56.330Z,82.72
2017-11-08T11:47:06.786Z,82.97
2017-11-08T11:48:17.202Z,82.97
2017-11-08T11:49:27.631Z,82.78
2017-11-08T11:50:38.058Z,82.68
2017-11-08T11:51:47.829Z,82.97
2017-11-08T11:52:57.961Z,82.78
2017-11-08T11:54:08.388Z,82.68
2017-11-08T11:55:18.816Z,82.78
2017-11-08T11:56:29.234Z,82.97
2017-11-08T11:57:38.986Z,82.78
2017-11-08T11:58:48.827Z,82.78
2017-11-08T11:59:58.935Z,82.78
2017-11-08T12:01:09.382Z,82.97
2017-11-08T12:02:19.842Z,82.78
2017-11-08T12:03:30.251Z,82.68
2017-11-08T12:04:40.414Z,82.68
2017-11-08T12:05:50.825Z,82.78
2017-11-08T12:07:01.256Z,83.06
2017-11-08T12:08:11.660Z,82.4
2017-11-08T12:09:22.108Z,82.49
2017-11-08T12:10:32.621Z,82.68
2017-11-08T12:11:42.719Z,82.43
2017-11-08T12:12:53.131Z,82.15
2017-11-08T12:14:03.551Z,82.24
2017-11-08T12:15:13.994Z,82.15
2017-11-08T12:16:23.798Z,82.63
2017-11-08T12:17:33.225Z,82.43
2017-11-08T12:18:43.642Z,83.01
2017-11-08T12:19:54.062Z,83.01
2017-11-08T12:21:04.189Z,82.72
2017-11-08T12:22:14.352Z,82.82
2017-11-08T12:23:24.791Z,82.91
2017-11-08T12:24:35.226Z,82.91
2017-11-08T12:25:44.968Z,82.82
2017-11-08T12:26:55.418Z,82.72
2017-11-08T12:28:05.893Z,82.72
2017-11-08T12:29:16.322Z,83.01
2017-11-08T12:30:26.433Z,83.39
2017-11-08T12:31:36.515Z,83.39
2017-11-08T12:32:46.600Z,83.2
2017-11-08T12:33:56.043Z,83.01
2017-11-08T12:35:06.767Z,83.44
2017-11-08T12:36:16.525Z,83.64
2017-11-08T12:37:26.928Z,83.54
2017-11-08T12:38:37.068Z,83.16
2017-11-08T12:39:47.220Z,83.16
2017-11-08T12:40:57.635Z,83.64
2017-11-08T12:42:08.074Z,83.44
2017-11-08T12:43:18.534Z,83.54
2017-11-08T12:44:28.643Z,83.54
2017-11-08T12:45:39.117Z,83.54
2017-11-08T12:46:49.536Z,83.44
2017-11-08T12:47:59.619Z,83.44
2017-11-08T12:49:10.037Z,83.64
2017-11-08T12:50:20.131Z,83.64
2017-11-08T12:51:30.620Z,83.35
2017-11-08T12:52:41.059Z,83.35
2017-11-08T12:53:51.489Z,82.97
2017-11-08T12:55:01.901Z,83.16
2017-11-08T12:56:12.334Z,83.25
2017-11-08T12:57:22.480Z,83.16
2017-11-08T12:58:32.561Z,83.35
2017-11-08T12:59:42.644Z,83.25
2017-11-08T13:00:52.757Z,83.35
2017-11-08T13:02:02.526Z,83.35
2017-11-08T13:03:12.686Z,83.35
2017-11-08T13:04:23.620Z,83.35
2017-11-08T13:05:33.690Z,83.16
2017-11-08T13:06:43.799Z,83.16
2017-11-08T13:07:54.208Z,83.16
2017-11-08T13:09:04.687Z,83.35
2017-11-08T13:10:15.127Z,83.16
2017-11-08T13:11:25.564Z,83.35
2017-11-08T13:12:36.006Z,83.35
2017-11-08T13:13:46.083Z,83.35
2017-11-08T13:14:56.231Z,83.35
2017-11-08T13:16:06.661Z,83.35
2017-11-08T13:17:16.761Z,83.44
2017-11-08T13:18:27.227Z,83.16
2017-11-08T13:19:36.976Z,83.16
2017-11-08T13:20:47.410Z,83.35
2017-11-08T13:21:57.190Z,83.35
2017-11-08T13:23:07.317Z,83.44
2017-11-08T13:24:17.419Z,83.44
2017-11-08T13:25:27.851Z,83.35
2017-11-08T13:26:39.334Z,82.78
2017-11-08T13:27:49.435Z,82.97
2017-11-08T13:28:59.868Z,83.35
2017-11-08T13:30:09.970Z,83.44
2017-11-08T13:31:20.384Z,83.35
2017-11-08T13:32:30.829Z,82.59
2017-11-08T13:33:40.915Z,82.59
2017-11-08T13:34:51.026Z,82.78
2017-11-08T13:36:00.450Z,82.68
2017-11-08T13:37:10.227Z,82.59
2017-11-08T13:38:20.046Z,82.78
2017-11-08T13:39:30.468Z,82.59
2017-11-08T13:40:40.602Z,82.49
2017-11-08T13:41:50.710Z,82.78
2017-11-08T13:43:00.836Z,82.87
2017-11-08T13:44:11.272Z,82.87
2017-11-08T13:45:21.053Z,82.68
2017-11-08T13:46:31.463Z,82.53
2017-11-08T13:47:41.887Z,82.87
2017-11-08T13:48:51.997Z,82.49
2017-11-08T13:50:02.412Z,82.68
2017-11-08T13:51:12.843Z,82.87
2017-11-08T13:52:22.932Z,83.2
2017-11-08T13:53:33.024Z,82.34
2017-11-08T13:54:43.451Z,82.72
2017-11-08T13:55:53.578Z,82.72
2017-11-08T13:57:03.651Z,82.24
2017-11-08T13:58:13.749Z,82.53
2017-11-08T13:59:24.183Z,82.34
2017-11-08T14:00:34.609Z,82.43
2017-11-08T14:01:44.750Z,82.53
2017-11-08T14:02:55.169Z,82.53
2017-11-08T14:04:05.584Z,83.01
2017-11-08T14:05:16.017Z,83.01
2017-11-08T14:06:26.464Z,82.91
2017-11-08T14:07:36.931Z,82.72
2017-11-08T14:08:47.028Z,82.82
2017-11-08T14:09:57.488Z,82.72
2017-11-08T14:11:07.933Z,83.01
2017-11-08T14:12:17.702Z,83.01
2017-11-08T14:13:28.209Z,83.01
2017-11-08T14:14:37.970Z,82.72
2017-11-08T14:15:48.406Z,82.82
2017-11-08T14:16:58.844Z,83.11
2017-11-08T14:18:08.931Z,82.82
2017-11-08T14:19:19.417Z,82.72
2017-11-08T14:20:29.859Z,82.72
2017-11-08T14:21:39.936Z,82.72
2017-11-08T14:22:50.360Z,82.72
2017-11-08T14:24:00.481Z,82.82
2017-11-08T14:25:10.601Z,82.91
2017-11-08T14:26:20.704Z,82.72
2017-11-08T14:27:30.790Z,82.72
2017-11-08T14:28:41.208Z,82.63
2017-11-08T14:29:51.629Z,82.72
2017-11-08T14:31:01.726Z,82.72
2017-11-08T14:32:12.153Z,82.72
2017-11-08T14:33:22.611Z,82.72
2017-11-08T14:34:32.705Z,82.72
2017-11-08T14:35:43.128Z,83.01
2017-11-08T14:36:53.599Z,83.01
2017-11-08T14:38:04.035Z,82.82
2017-11-08T14:39:14.154Z,83.01
2017-11-08T14:40:24.581Z,82.82
2017-11-08T14:41:34.651Z,83.01
2017-11-08T14:42:46.458Z,82.82
2017-11-08T14:43:56.547Z,82.53
2017-11-08T14:45:06.341Z,82.82
2017-11-08T14:46:16.761Z,83.01
2017-11-08T14:47:27.214Z,83.01
2017-11-08T14:48:37.640Z,82.63
2017-11-08T14:49:48.069Z,82.63
2017-11-08T14:50:58.479Z,82.82
2017-11-08T14:52:08.888Z,82.63
2017-11-08T14:53:18.990Z,82.82
2017-11-08T14:54:28.455Z,83.48
2017-11-08T14:55:38.573Z,83.58
2017-11-08T14:56:48.326Z,82.91
2017-11-08T14:57:58.745Z,83.39
2017-11-08T14:59:09.178Z,83.39
2017-11-08T15:00:19.319Z,83.39
2017-11-08T15:01:29.765Z,83.01
2017-11-08T15:02:40.167Z,83.39
2017-11-08T15:03:50.609Z,83.01
2017-11-08T15:05:01.025Z,83.01
2017-11-08T15:06:10.775Z,83.39
2017-11-08T15:07:20.888Z,83.39
2017-11-08T15:08:30.998Z,83.39
2017-11-08T15:09:41.419Z,83.01
2017-11-08T15:10:51.517Z,83.39
2017-11-08T15:12:02.021Z,83.2
2017-11-08T15:13:11.775Z,83.29
2017-11-08T15:14:21.877Z,83.39
2017-11-08T15:15:32.294Z,83.29
2017-11-08T15:16:42.059Z,83.06
2017-11-08T15:17:52.148Z,83.25
2017-11-08T15:19:02.607Z,82.97
2017-11-08T15:20:13.106Z,82.97
2017-11-08T15:21:23.528Z,83.06
2017-11-08T15:22:33.641Z,82.97
2017-11-08T15:23:44.075Z,82.97
2017-11-08T15:24:54.520Z,83.16
2017-11-08T15:26:04.655Z,83.35
2017-11-08T15:27:15.108Z,83.35
2017-11-08T15:28:25.231Z,83.35
2017-11-08T15:29:35.649Z,82.97
2017-11-08T15:30:45.737Z,83.35
2017-11-08T15:31:56.271Z,83.64
2017-11-08T15:33:06.376Z,83.64
2017-11-08T15:34:16.848Z,83.73
2017-11-08T15:35:26.649Z,83.16
2017-11-08T15:36:36.750Z,83.54
2017-11-08T15:37:48.196Z,83.73